sensor_id;sensor_type;location;lat;lon;timestamp;temperature;humidity
15578;DHT22;17667;45.598;5.214;2023-04-25T05:03:05;12.40;87.70
15578;DHT22;17667;45.598;5.214;2023-04-25T05:06:08;12.50;88.40
15578;DHT22;17667;45.598;5.214;2023-04-25T05:09:26;12.50;86.50
15578;DHT22;17667;45.598;5.214;2023-04-25T05:12:37;12.60;85.00
15578;DHT22;17667;45.598;5.214;2023-04-25T05:15:27;12.60;86.50
15578;DHT22;17667;45.598;5.214;2023-04-25T05:18:18;12.60;84.90
15578;DHT22;17667;45.598;5.214;2023-04-25T05:21:33;12.60;86.40
15578;DHT22;17667;45.598;5.214;2023-04-25T05:24:29;12.60;86.00
15578;DHT22;17667;45.598;5.214;2023-04-25T05:27:29;12.60;87.60
15578;DHT22;17667;45.598;5.214;2023-04-25T05:30:36;12.60;85.50
15578;DHT22;17667;45.598;5.214;2023-04-25T05:33:47;12.60;86.00
15578;DHT22;17667;45.598;5.214;2023-04-25T05:36:35;12.60;87.70
15578;DHT22;17667;45.598;5.214;2023-04-25T05:39:23;12.60;87.40
15578;DHT22;17667;45.598;5.214;2023-04-25T05:42:20;12.70;86.10
15578;DHT22;17667;45.598;5.214;2023-04-25T05:45:26;12.70;87.70
15578;DHT22;17667;45.598;5.214;2023-04-25T05:48:28;12.70;89.70
15578;DHT22;17667;45.598;5.214;2023-04-25T05:51:37;12.70;89.40
15578;DHT22;17667;45.598;5.214;2023-04-25T05:54:48;12.80;87.90
15578;DHT22;17667;45.598;5.214;2023-04-25T05:57:36;12.90;86.90
15578;DHT22;17667;45.598;5.214;2023-04-25T06:00:27;12.90;87.30
15578;DHT22;17667;45.598;5.214;2023-04-25T06:03:15;13.00;86.80
15578;DHT22;17667;45.598;5.214;2023-04-25T06:06:05;13.00;88.00
15578;DHT22;17667;45.598;5.214;2023-04-25T06:08:54;13.00;87.30
15578;DHT22;17667;45.598;5.214;2023-04-25T06:11:42;13.00;86.70
15578;DHT22;17667;45.598;5.214;2023-04-25T06:14:30;13.00;89.70
15578;DHT22;17667;45.598;5.214;2023-04-25T06:17:18;13.00;89.70
15578;DHT22;17667;45.598;5.214;2023-04-25T06:20:09;13.00;90.20
15578;DHT22;17667;45.598;5.214;2023-04-25T06:22:58;13.00;88.30
15578;DHT22;17667;45.598;5.214;2023-04-25T06:26:08;13.10;90.40
15578;DHT22;17667;45.598;5.214;2023-04-25T06:28:58;13.10;89.90
15578;DHT22;17667;45.598;5.214;2023-04-25T06:31:45;13.10;86.60
15578;DHT22;17667;45.598;5.214;2023-04-25T06:34:34;13.20;90.30
15578;DHT22;17667;45.598;5.214;2023-04-25T06:37:21;13.20;88.30
15578;DHT22;17667;45.598;5.214;2023-04-25T06:40:10;13.20;86.70
15578;DHT22;17667;45.598;5.214;2023-04-25T06:42:59;13.20;86.20
15578;DHT22;17667;45.598;5.214;2023-04-25T06:46:06;13.30;89.20
15578;DHT22;17667;45.598;5.214;2023-04-25T06:49:00;13.50;86.50
15578;DHT22;17667;45.598;5.214;2023-04-25T06:51:48;13.60;87.10
15578;DHT22;17667;45.598;5.214;2023-04-25T06:54:36;13.50;86.30
15578;DHT22;17667;45.598;5.214;2023-04-25T06:57:35;13.50;85.90
15578;DHT22;17667;45.598;5.214;2023-04-25T07:00:50;13.40;85.10
15578;DHT22;17667;45.598;5.214;2023-04-25T07:03:40;13.40;87.00
15578;DHT22;17667;45.598;5.214;2023-04-25T07:06:34;13.50;89.40
15578;DHT22;17667;45.598;5.214;2023-04-25T07:09:24;13.50;87.50
15578;DHT22;17667;45.598;5.214;2023-04-25T07:12:14;13.40;86.30
15578;DHT22;17667;45.598;5.214;2023-04-25T07:15:03;13.50;88.40
15578;DHT22;17667;45.598;5.214;2023-04-25T07:17:54;13.60;88.20
15578;DHT22;17667;45.598;5.214;2023-04-25T07:20:41;13.60;86.60
15578;DHT22;17667;45.598;5.214;2023-04-25T07:23:29;13.60;89.60
15578;DHT22;17667;45.598;5.214;2023-04-25T07:26:20;13.70;87.40
15578;DHT22;17667;45.598;5.214;2023-04-25T07:29:28;13.80;86.30
15578;DHT22;17667;45.598;5.214;2023-04-25T07:32:17;13.80;86.60
15578;DHT22;17667;45.598;5.214;2023-04-25T07:35:08;13.90;87.00
15578;DHT22;17667;45.598;5.214;2023-04-25T07:37:55;14.00;85.40
15578;DHT22;17667;45.598;5.214;2023-04-25T07:40:43;14.10;84.20
15578;DHT22;17667;45.598;5.214;2023-04-25T07:43:31;14.10;84.80
15578;DHT22;17667;45.598;5.214;2023-04-25T07:46:19;14.30;86.30
15578;DHT22;17667;45.598;5.214;2023-04-25T07:49:07;14.40;81.50
15578;DHT22;17667;45.598;5.214;2023-04-25T07:51:56;14.70;80.80
15578;DHT22;17667;45.598;5.214;2023-04-25T07:54:43;15.50;80.90
15578;DHT22;17667;45.598;5.214;2023-04-25T07:57:36;15.70;78.50
15578;DHT22;17667;45.598;5.214;2023-04-25T08:00:24;15.40;76.40
15578;DHT22;17667;45.598;5.214;2023-04-25T08:03:27;15.40;77.60
15578;DHT22;17667;45.598;5.214;2023-04-25T08:06:17;15.40;77.40
15578;DHT22;17667;45.598;5.214;2023-04-25T08:09:24;15.20;76.50
15578;DHT22;17667;45.598;5.214;2023-04-25T08:12:12;15.00;76.20
15578;DHT22;17667;45.598;5.214;2023-04-25T08:15:00;14.90;79.40
15578;DHT22;17667;45.598;5.214;2023-04-25T08:17:52;14.80;79.70
15578;DHT22;17667;45.598;5.214;2023-04-25T08:20:40;14.80;82.10
15578;DHT22;17667;45.598;5.214;2023-04-25T08:23:30;14.80;80.30
15578;DHT22;17667;45.598;5.214;2023-04-25T08:26:31;14.60;76.50
15578;DHT22;17667;45.598;5.214;2023-04-25T08:29:21;14.60;76.50
15578;DHT22;17667;45.598;5.214;2023-04-25T08:32:11;14.60;77.70
15578;DHT22;17667;45.598;5.214;2023-04-25T08:35:07;14.90;77.90
15578;DHT22;17667;45.598;5.214;2023-04-25T08:37:55;15.10;74.60
15578;DHT22;17667;45.598;5.214;2023-04-25T08:40:43;15.50;75.10
15578;DHT22;17667;45.598;5.214;2023-04-25T08:43:37;16.10;73.00
15578;DHT22;17667;45.598;5.214;2023-04-25T08:46:30;16.90;71.50
15578;DHT22;17667;45.598;5.214;2023-04-25T08:49:30;17.70;66.90
15578;DHT22;17667;45.598;5.214;2023-04-25T08:52:22;18.40;67.20
15578;DHT22;17667;45.598;5.214;2023-04-25T08:55:12;18.50;62.20
15578;DHT22;17667;45.598;5.214;2023-04-25T08:58:00;18.40;63.90
15578;DHT22;17667;45.598;5.214;2023-04-25T09:00:51;18.60;63.30
15578;DHT22;17667;45.598;5.214;2023-04-25T09:03:42;19.30;63.10
15578;DHT22;17667;45.598;5.214;2023-04-25T09:06:31;19.70;60.10
15578;DHT22;17667;45.598;5.214;2023-04-25T09:09:21;19.90;59.20
15578;DHT22;17667;45.598;5.214;2023-04-25T09:12:09;19.60;59.50
15578;DHT22;17667;45.598;5.214;2023-04-25T09:15:07;19.50;60.60
15578;DHT22;17667;45.598;5.214;2023-04-25T09:18:24;19.60;58.10
15578;DHT22;17667;45.598;5.214;2023-04-25T09:21:14;20.30;64.10
15578;DHT22;17667;45.598;5.214;2023-04-25T09:24:07;20.80;61.40
15578;DHT22;17667;45.598;5.214;2023-04-25T09:26:54;21.50;55.80
15578;DHT22;17667;45.598;5.214;2023-04-25T09:29:42;22.00;59.10
15578;DHT22;17667;45.598;5.214;2023-04-25T09:32:31;22.00;52.60
15578;DHT22;17667;45.598;5.214;2023-04-25T09:35:25;22.60;51.30
15578;DHT22;17667;45.598;5.214;2023-04-25T09:38:15;22.90;56.60
15578;DHT22;17667;45.598;5.214;2023-04-25T09:41:23;23.10;57.10
15578;DHT22;17667;45.598;5.214;2023-04-25T09:44:13;22.50;50.30
15578;DHT22;17667;45.598;5.214;2023-04-25T09:47:02;21.90;49.60
15578;DHT22;17667;45.598;5.214;2023-04-25T09:49:52;22.00;56.10
15578;DHT22;17667;45.598;5.214;2023-04-25T09:52:42;22.50;53.80
15578;DHT22;17667;45.598;5.214;2023-04-25T09:55:38;23.00;53.40
15578;DHT22;17667;45.598;5.214;2023-04-25T09:58:29;23.20;52.60
15578;DHT22;17667;45.598;5.214;2023-04-25T10:01:18;23.60;51.10
15578;DHT22;17667;45.598;5.214;2023-04-25T10:04:25;23.40;44.90
15578;DHT22;17667;45.598;5.214;2023-04-25T10:07:23;23.10;56.70
15578;DHT22;17667;45.598;5.214;2023-04-25T10:10:13;22.40;50.90
15578;DHT22;17667;45.598;5.214;2023-04-25T10:13:03;22.20;51.10
15578;DHT22;17667;45.598;5.214;2023-04-25T10:15:52;21.70;46.90
15578;DHT22;17667;45.598;5.214;2023-04-25T10:18:41;21.30;48.50
15578;DHT22;17667;45.598;5.214;2023-04-25T10:21:31;20.80;54.70
15578;DHT22;17667;45.598;5.214;2023-04-25T10:24:20;20.40;49.70
15578;DHT22;17667;45.598;5.214;2023-04-25T10:27:09;21.10;56.20
15578;DHT22;17667;45.598;5.214;2023-04-25T10:30:01;21.50;48.70
15578;DHT22;17667;45.598;5.214;2023-04-25T10:32:50;21.20;47.30
15578;DHT22;17667;45.598;5.214;2023-04-25T10:35:38;21.00;55.00
15578;DHT22;17667;45.598;5.214;2023-04-25T10:38:26;20.90;52.90
15578;DHT22;17667;45.598;5.214;2023-04-25T10:41:14;20.80;49.80
15578;DHT22;17667;45.598;5.214;2023-04-25T10:44:04;20.80;53.80
15578;DHT22;17667;45.598;5.214;2023-04-25T10:46:51;21.20;52.80
15578;DHT22;17667;45.598;5.214;2023-04-25T10:49:42;21.50;57.30
15578;DHT22;17667;45.598;5.214;2023-04-25T10:52:29;21.20;54.20
15578;DHT22;17667;45.598;5.214;2023-04-25T10:55:20;21.00;54.90
15578;DHT22;17667;45.598;5.214;2023-04-25T10:58:08;21.50;53.20
15578;DHT22;17667;45.598;5.214;2023-04-25T11:00:57;21.80;53.10
15578;DHT22;17667;45.598;5.214;2023-04-25T11:03:45;22.20;52.90
15578;DHT22;17667;45.598;5.214;2023-04-25T11:06:46;22.00;50.30
15578;DHT22;17667;45.598;5.214;2023-04-25T11:09:39;21.40;51.50
15578;DHT22;17667;45.598;5.214;2023-04-25T11:12:27;21.00;49.30
15578;DHT22;17667;45.598;5.214;2023-04-25T11:15:17;20.70;48.40
15578;DHT22;17667;45.598;5.214;2023-04-25T11:18:06;20.60;49.30
15578;DHT22;17667;45.598;5.214;2023-04-25T11:20:56;20.50;55.50
15578;DHT22;17667;45.598;5.214;2023-04-25T11:23:44;20.90;54.90
15578;DHT22;17667;45.598;5.214;2023-04-25T11:26:33;22.10;52.60
15578;DHT22;17667;45.598;5.214;2023-04-25T11:29:22;23.30;53.20
15578;DHT22;17667;45.598;5.214;2023-04-25T11:32:10;24.10;47.80
15578;DHT22;17667;45.598;5.214;2023-04-25T11:34:59;25.00;50.20
15578;DHT22;17667;45.598;5.214;2023-04-25T11:37:46;25.80;44.30
15578;DHT22;17667;45.598;5.214;2023-04-25T11:40:35;26.20;48.60
15578;DHT22;17667;45.598;5.214;2023-04-25T11:43:23;26.80;44.90
15578;DHT22;17667;45.598;5.214;2023-04-25T11:46:11;27.80;44.00
15578;DHT22;17667;45.598;5.214;2023-04-25T11:48:58;28.00;46.30
15578;DHT22;17667;45.598;5.214;2023-04-25T11:51:48;27.20;42.10
15578;DHT22;17667;45.598;5.214;2023-04-25T11:54:36;26.10;38.10
15578;DHT22;17667;45.598;5.214;2023-04-25T11:57:24;25.10;39.90
15578;DHT22;17667;45.598;5.214;2023-04-25T12:00:13;24.50;49.20
15578;DHT22;17667;45.598;5.214;2023-04-25T12:03:03;24.10;49.50
15578;DHT22;17667;45.598;5.214;2023-04-25T12:05:51;24.80;51.40
15578;DHT22;17667;45.598;5.214;2023-04-25T12:08:59;26.20;51.20
15578;DHT22;17667;45.598;5.214;2023-04-25T12:11:48;27.50;47.50
15578;DHT22;17667;45.598;5.214;2023-04-25T12:14:36;28.90;43.30
15578;DHT22;17667;45.598;5.214;2023-04-25T12:17:24;30.10;41.50
15578;DHT22;17667;45.598;5.214;2023-04-25T12:20:13;30.70;44.00
15578;DHT22;17667;45.598;5.214;2023-04-25T12:23:05;30.70;36.60
15578;DHT22;17667;45.598;5.214;2023-04-25T12:25:55;29.70;35.90
15578;DHT22;17667;45.598;5.214;2023-04-25T12:28:45;28.40;42.60
15578;DHT22;17667;45.598;5.214;2023-04-25T12:31:34;26.60;42.40
15578;DHT22;17667;45.598;5.214;2023-04-25T12:34:23;24.70;42.60
15578;DHT22;17667;45.598;5.214;2023-04-25T12:37:10;24.50;47.00
15578;DHT22;17667;45.598;5.214;2023-04-25T12:39:58;24.30;48.10
15578;DHT22;17667;45.598;5.214;2023-04-25T12:42:47;24.10;50.60
15578;DHT22;17667;45.598;5.214;2023-04-25T12:45:35;23.80;47.60
15578;DHT22;17667;45.598;5.214;2023-04-25T12:48:23;24.00;50.80
15578;DHT22;17667;45.598;5.214;2023-04-25T12:51:11;25.10;46.00
15578;DHT22;17667;45.598;5.214;2023-04-25T12:53:58;25.50;47.40
15578;DHT22;17667;45.598;5.214;2023-04-25T12:56:46;27.20;46.70
15578;DHT22;17667;45.598;5.214;2023-04-25T12:59:35;28.10;45.60
15578;DHT22;17667;45.598;5.214;2023-04-25T13:02:22;26.90;43.50
15578;DHT22;17667;45.598;5.214;2023-04-25T13:05:10;26.80;45.20
15578;DHT22;17667;45.598;5.214;2023-04-25T13:07:59;27.20;40.60
15578;DHT22;17667;45.598;5.214;2023-04-25T13:10:47;26.60;45.00
15578;DHT22;17667;45.598;5.214;2023-04-25T13:13:35;25.50;44.30
15578;DHT22;17667;45.598;5.214;2023-04-25T13:16:23;25.90;46.60
15578;DHT22;17667;45.598;5.214;2023-04-25T13:19:11;27.30;45.50
15578;DHT22;17667;45.598;5.214;2023-04-25T13:21:59;28.30;44.10
15578;DHT22;17667;45.598;5.214;2023-04-25T13:24:47;27.50;42.10
15578;DHT22;17667;45.598;5.214;2023-04-25T13:27:36;26.20;38.10
15578;DHT22;17667;45.598;5.214;2023-04-25T13:30:23;25.20;40.10
15578;DHT22;17667;45.598;5.214;2023-04-25T13:33:12;25.50;45.00
15578;DHT22;17667;45.598;5.214;2023-04-25T13:36:01;27.90;45.00
15578;DHT22;17667;45.598;5.214;2023-04-25T13:38:49;29.30;38.60
15578;DHT22;17667;45.598;5.214;2023-04-25T13:41:36;29.70;39.10
15578;DHT22;17667;45.598;5.214;2023-04-25T13:44:30;29.60;34.60
15578;DHT22;17667;45.598;5.214;2023-04-25T13:47:18;29.50;34.60
15578;DHT22;17667;45.598;5.214;2023-04-25T13:50:07;29.40;37.30
15578;DHT22;17667;45.598;5.214;2023-04-25T13:52:56;27.90;33.90
15578;DHT22;17667;45.598;5.214;2023-04-25T13:55:43;27.40;38.00
15578;DHT22;17667;45.598;5.214;2023-04-25T13:58:31;26.80;36.80
15578;DHT22;17667;45.598;5.214;2023-04-25T14:01:19;26.40;36.10
15578;DHT22;17667;45.598;5.214;2023-04-25T14:04:07;25.90;36.80
15578;DHT22;17667;45.598;5.214;2023-04-25T14:06:56;25.70;36.40
15578;DHT22;17667;45.598;5.214;2023-04-25T14:09:44;25.50;40.10
15578;DHT22;17667;45.598;5.214;2023-04-25T14:12:32;24.70;38.90
15578;DHT22;17667;45.598;5.214;2023-04-25T14:18:07;23.70;37.70
15578;DHT22;17667;45.598;5.214;2023-04-25T14:20:55;23.70;40.50
15578;DHT22;17667;45.598;5.214;2023-04-25T14:23:44;23.40;38.70
15578;DHT22;17667;45.598;5.214;2023-04-25T14:26:33;22.90;44.40
15578;DHT22;17667;45.598;5.214;2023-04-25T14:29:21;22.00;42.20
15578;DHT22;17667;45.598;5.214;2023-04-25T14:32:09;21.50;42.40
15578;DHT22;17667;45.598;5.214;2023-04-25T14:34:57;21.30;42.80
15578;DHT22;17667;45.598;5.214;2023-04-25T14:37:44;21.20;44.60
15578;DHT22;17667;45.598;5.214;2023-04-25T14:40:33;21.10;41.90
15578;DHT22;17667;45.598;5.214;2023-04-25T14:43:21;21.40;42.20
15578;DHT22;17667;45.598;5.214;2023-04-25T14:46:09;21.60;45.50
15578;DHT22;17667;45.598;5.214;2023-04-25T14:48:57;21.90;44.20
15578;DHT22;17667;45.598;5.214;2023-04-25T14:51:45;22.20;47.10
15578;DHT22;17667;45.598;5.214;2023-04-25T14:54:33;22.40;42.20
15578;DHT22;17667;45.598;5.214;2023-04-25T14:57:21;22.50;46.90
15578;DHT22;17667;45.598;5.214;2023-04-25T15:00:10;22.30;47.60
15578;DHT22;17667;45.598;5.214;2023-04-25T15:03:01;21.90;40.70
15578;DHT22;17667;45.598;5.214;2023-04-25T15:05:49;21.70;45.20
15578;DHT22;17667;45.598;5.214;2023-04-25T15:08:37;21.50;41.70
15578;DHT22;17667;45.598;5.214;2023-04-25T15:11:24;21.20;44.70
15578;DHT22;17667;45.598;5.214;2023-04-25T15:14:13;21.10;45.50
15578;DHT22;17667;45.598;5.214;2023-04-25T15:17:01;20.90;41.40
15578;DHT22;17667;45.598;5.214;2023-04-25T15:19:49;21.00;48.90
15578;DHT22;17667;45.598;5.214;2023-04-25T15:22:36;20.90;43.10
15578;DHT22;17667;45.598;5.214;2023-04-25T15:25:24;21.00;44.40
15578;DHT22;17667;45.598;5.214;2023-04-25T15:28:14;21.00;45.70
15578;DHT22;17667;45.598;5.214;2023-04-25T15:31:03;21.10;47.30
15578;DHT22;17667;45.598;5.214;2023-04-25T15:33:51;21.20;46.60
15578;DHT22;17667;45.598;5.214;2023-04-25T15:36:39;21.10;49.60
15578;DHT22;17667;45.598;5.214;2023-04-25T15:39:26;20.90;39.90
15578;DHT22;17667;45.598;5.214;2023-04-25T15:42:14;20.80;41.50
15578;DHT22;17667;45.598;5.214;2023-04-25T15:45:03;20.80;44.10
15578;DHT22;17667;45.598;5.214;2023-04-25T15:47:54;20.50;45.00
15578;DHT22;17667;45.598;5.214;2023-04-25T15:50:42;20.30;42.50
15578;DHT22;17667;45.598;5.214;2023-04-25T15:53:30;20.30;44.60
15578;DHT22;17667;45.598;5.214;2023-04-25T15:56:17;20.30;43.80
15578;DHT22;17667;45.598;5.214;2023-04-25T15:59:05;20.40;46.50
15578;DHT22;17667;45.598;5.214;2023-04-25T16:01:53;20.20;42.70
15578;DHT22;17667;45.598;5.214;2023-04-25T16:04:42;20.10;46.30
15578;DHT22;17667;45.598;5.214;2023-04-25T16:07:30;20.10;45.50
15578;DHT22;17667;45.598;5.214;2023-04-25T16:10:18;20.10;46.40
15578;DHT22;17667;45.598;5.214;2023-04-25T16:13:06;20.00;45.60
15578;DHT22;17667;45.598;5.214;2023-04-25T16:15:54;20.00;44.80
15578;DHT22;17667;45.598;5.214;2023-04-25T16:18:42;19.90;45.20
15578;DHT22;17667;45.598;5.214;2023-04-25T16:21:31;19.80;45.40
15578;DHT22;17667;45.598;5.214;2023-04-25T16:24:18;19.80;45.20
15578;DHT22;17667;45.598;5.214;2023-04-25T16:27:06;19.70;43.20
15578;DHT22;17667;45.598;5.214;2023-04-25T16:29:54;19.80;44.40
15578;DHT22;17667;45.598;5.214;2023-04-25T16:32:42;19.70;45.20
15578;DHT22;17667;45.598;5.214;2023-04-25T16:35:30;19.70;46.20
15578;DHT22;17667;45.598;5.214;2023-04-25T16:38:20;19.60;45.00
15578;DHT22;17667;45.598;5.214;2023-04-25T16:41:08;19.30;44.80
15578;DHT22;17667;45.598;5.214;2023-04-25T16:43:56;19.30;46.60
15578;DHT22;17667;45.598;5.214;2023-04-25T16:46:44;19.10;46.80
15578;DHT22;17667;45.598;5.214;2023-04-25T16:49:32;19.10;46.10
15578;DHT22;17667;45.598;5.214;2023-04-25T16:52:20;18.90;46.60
15578;DHT22;17667;45.598;5.214;2023-04-25T16:55:10;18.80;46.10
15578;DHT22;17667;45.598;5.214;2023-04-25T16:57:58;18.70;45.90
15578;DHT22;17667;45.598;5.214;2023-04-25T17:00:46;18.70;47.90
15578;DHT22;17667;45.598;5.214;2023-04-25T17:03:34;18.50;48.40
15578;DHT22;17667;45.598;5.214;2023-04-25T17:06:22;18.30;47.10
15578;DHT22;17667;45.598;5.214;2023-04-25T17:09:09;18.20;47.30
15578;DHT22;17667;45.598;5.214;2023-04-25T17:11:58;18.10;47.90
15578;DHT22;17667;45.598;5.214;2023-04-25T17:14:48;18.10;48.00
15578;DHT22;17667;45.598;5.214;2023-04-25T17:17:35;18.10;48.30
15578;DHT22;17667;45.598;5.214;2023-04-25T17:20:23;18.00;48.20
15578;DHT22;17667;45.598;5.214;2023-04-25T17:23:11;17.80;47.40
15578;DHT22;17667;45.598;5.214;2023-04-25T17:25:59;17.60;47.70
15578;DHT22;17667;45.598;5.214;2023-04-25T17:28:48;17.50;50.00
15578;DHT22;17667;45.598;5.214;2023-04-25T17:31:35;17.40;48.60
15578;DHT22;17667;45.598;5.214;2023-04-25T17:34:23;17.20;49.50
15578;DHT22;17667;45.598;5.214;2023-04-25T17:37:11;17.20;50.30
15578;DHT22;17667;45.598;5.214;2023-04-25T17:40:01;17.10;50.10
15578;DHT22;17667;45.598;5.214;2023-04-25T17:42:50;17.00;51.40
15578;DHT22;17667;45.598;5.214;2023-04-25T17:45:39;16.90;50.10
15578;DHT22;17667;45.598;5.214;2023-04-25T17:48:27;16.90;50.50
15578;DHT22;17667;45.598;5.214;2023-04-25T17:51:16;16.80;51.80
15578;DHT22;17667;45.598;5.214;2023-04-25T17:54:03;16.70;51.40
15578;DHT22;17667;45.598;5.214;2023-04-25T17:56:51;16.60;50.30
15578;DHT22;17667;45.598;5.214;2023-04-25T17:59:39;16.60;50.90
15578;DHT22;17667;45.598;5.214;2023-04-25T18:02:28;16.50;52.10
15578;DHT22;17667;45.598;5.214;2023-04-25T18:05:16;16.50;52.90
15578;DHT22;17667;45.598;5.214;2023-04-25T18:08:04;16.50;52.00
15578;DHT22;17667;45.598;5.214;2023-04-25T18:10:52;16.40;50.80
15578;DHT22;17667;45.598;5.214;2023-04-25T18:13:40;16.30;51.70
15578;DHT22;17667;45.598;5.214;2023-04-25T18:16:28;16.20;52.70
15578;DHT22;17667;45.598;5.214;2023-04-25T18:19:18;16.10;51.60
15578;DHT22;17667;45.598;5.214;2023-04-25T18:22:08;16.10;52.20
15578;DHT22;17667;45.598;5.214;2023-04-25T18:24:55;16.00;52.00
15578;DHT22;17667;45.598;5.214;2023-04-25T18:27:43;15.90;51.80
15578;DHT22;17667;45.598;5.214;2023-04-25T18:30:31;15.80;53.20
15578;DHT22;17667;45.598;5.214;2023-04-25T18:33:19;15.70;52.30
15578;DHT22;17667;45.598;5.214;2023-04-25T18:36:09;15.70;54.50
15578;DHT22;17667;45.598;5.214;2023-04-25T18:38:57;15.60;54.30
15578;DHT22;17667;45.598;5.214;2023-04-25T18:41:50;15.60;54.20
15578;DHT22;17667;45.598;5.214;2023-04-25T18:44:44;15.50;54.60
15578;DHT22;17667;45.598;5.214;2023-04-25T18:47:31;15.40;53.90
15578;DHT22;17667;45.598;5.214;2023-04-25T18:50:19;15.30;54.40
15578;DHT22;17667;45.598;5.214;2023-04-25T18:53:13;15.20;54.00
15578;DHT22;17667;45.598;5.214;2023-04-25T18:56:00;15.20;54.60
15578;DHT22;17667;45.598;5.214;2023-04-25T18:58:47;15.10;54.50
15578;DHT22;17667;45.598;5.214;2023-04-25T19:01:36;15.10;54.00
15578;DHT22;17667;45.598;5.214;2023-04-25T19:04:24;15.00;54.50
15578;DHT22;17667;45.598;5.214;2023-04-25T19:07:13;15.00;55.40
15578;DHT22;17667;45.598;5.214;2023-04-25T19:10:03;15.00;55.00
15578;DHT22;17667;45.598;5.214;2023-04-25T19:12:51;14.90;54.40
15578;DHT22;17667;45.598;5.214;2023-04-25T19:15:41;14.80;54.30
15578;DHT22;17667;45.598;5.214;2023-04-25T19:18:28;14.80;55.40
15578;DHT22;17667;45.598;5.214;2023-04-25T19:21:16;14.70;56.00
15578;DHT22;17667;45.598;5.214;2023-04-25T19:24:04;14.70;56.30
15578;DHT22;17667;45.598;5.214;2023-04-25T19:26:54;14.70;56.30
15578;DHT22;17667;45.598;5.214;2023-04-25T19:29:42;14.60;55.20
15578;DHT22;17667;45.598;5.214;2023-04-25T19:32:33;14.50;55.70
15578;DHT22;17667;45.598;5.214;2023-04-25T19:35:21;14.50;57.10
15578;DHT22;17667;45.598;5.214;2023-04-25T19:38:08;14.40;57.30
15578;DHT22;17667;45.598;5.214;2023-04-25T19:40:56;14.40;56.30
15578;DHT22;17667;45.598;5.214;2023-04-25T19:43:45;14.30;56.30
15578;DHT22;17667;45.598;5.214;2023-04-25T19:46:33;14.30;56.70
15578;DHT22;17667;45.598;5.214;2023-04-25T19:49:21;14.30;56.40
15578;DHT22;17667;45.598;5.214;2023-04-25T19:52:09;14.30;56.10
15578;DHT22;17667;45.598;5.214;2023-04-25T19:55:00;14.30;56.00
15578;DHT22;17667;45.598;5.214;2023-04-25T19:57:48;14.20;56.40
15578;DHT22;17667;45.598;5.214;2023-04-25T20:00:38;14.20;56.70
15578;DHT22;17667;45.598;5.214;2023-04-25T20:03:26;14.10;56.90
15578;DHT22;17667;45.598;5.214;2023-04-25T20:06:14;14.10;56.00
15578;DHT22;17667;45.598;5.214;2023-04-25T20:09:02;14.10;57.20
15578;DHT22;17667;45.598;5.214;2023-04-25T20:11:50;14.00;56.80
15578;DHT22;17667;45.598;5.214;2023-04-25T20:14:38;14.00;56.70
15578;DHT22;17667;45.598;5.214;2023-04-25T20:17:27;13.90;56.50
15578;DHT22;17667;45.598;5.214;2023-04-25T20:20:15;13.90;57.30
15578;DHT22;17667;45.598;5.214;2023-04-25T20:23:04;13.90;56.80
15578;DHT22;17667;45.598;5.214;2023-04-25T20:25:52;13.80;58.00
15578;DHT22;17667;45.598;5.214;2023-04-25T20:28:40;13.80;58.50
15578;DHT22;17667;45.598;5.214;2023-04-25T20:31:28;13.70;58.30
15578;DHT22;17667;45.598;5.214;2023-04-25T20:34:18;13.70;58.00
15578;DHT22;17667;45.598;5.214;2023-04-25T20:37:06;13.70;58.00
15578;DHT22;17667;45.598;5.214;2023-04-25T20:39:54;13.60;57.90
15578;DHT22;17667;45.598;5.214;2023-04-25T20:42:42;13.60;56.80
15578;DHT22;17667;45.598;5.214;2023-04-25T20:45:31;13.60;57.70
15578;DHT22;17667;45.598;5.214;2023-04-25T20:48:20;13.50;58.00
15578;DHT22;17667;45.598;5.214;2023-04-25T20:51:08;13.50;58.80
15578;DHT22;17667;45.598;5.214;2023-04-25T20:53:57;13.50;58.90
15578;DHT22;17667;45.598;5.214;2023-04-25T20:56:45;13.50;59.00
15578;DHT22;17667;45.598;5.214;2023-04-25T20:59:33;13.40;59.20
15578;DHT22;17667;45.598;5.214;2023-04-25T21:02:20;13.40;59.00
15578;DHT22;17667;45.598;5.214;2023-04-25T21:05:09;13.30;59.20
15578;DHT22;17667;45.598;5.214;2023-04-25T21:07:58;13.30;60.10
15578;DHT22;17667;45.598;5.214;2023-04-25T21:10:46;13.20;60.00
15578;DHT22;17667;45.598;5.214;2023-04-25T21:13:34;13.20;60.80
15578;DHT22;17667;45.598;5.214;2023-04-25T21:16:21;13.10;62.30
15578;DHT22;17667;45.598;5.214;2023-04-25T21:19:09;13.00;60.70
15578;DHT22;17667;45.598;5.214;2023-04-25T21:21:57;13.00;60.50
15578;DHT22;17667;45.598;5.214;2023-04-25T21:24:45;12.90;60.60
15578;DHT22;17667;45.598;5.214;2023-04-25T21:27:35;12.90;60.40
15578;DHT22;17667;45.598;5.214;2023-04-25T21:30:24;12.90;61.20
15578;DHT22;17667;45.598;5.214;2023-04-25T21:33:12;12.80;61.00
15578;DHT22;17667;45.598;5.214;2023-04-25T21:36:00;12.80;62.20
15578;DHT22;17667;45.598;5.214;2023-04-25T21:38:47;12.70;61.50
15578;DHT22;17667;45.598;5.214;2023-04-25T21:41:36;12.60;62.60
15578;DHT22;17667;45.598;5.214;2023-04-25T21:44:25;12.50;61.40
15578;DHT22;17667;45.598;5.214;2023-04-25T21:47:15;12.50;62.40
15578;DHT22;17667;45.598;5.214;2023-04-25T21:50:03;12.40;62.10
15578;DHT22;17667;45.598;5.214;2023-04-25T21:52:51;12.30;64.80
15578;DHT22;17667;45.598;5.214;2023-04-25T21:55:44;12.20;68.20
15578;DHT22;17667;45.598;5.214;2023-04-25T21:58:32;12.10;65.80
15578;DHT22;17667;45.598;5.214;2023-04-25T22:01:20;12.00;65.00
15578;DHT22;17667;45.598;5.214;2023-04-25T22:04:08;12.00;64.10
15578;DHT22;17667;45.598;5.214;2023-04-25T22:06:56;11.90;66.40
15578;DHT22;17667;45.598;5.214;2023-04-25T22:09:43;11.90;67.10
15578;DHT22;17667;45.598;5.214;2023-04-25T22:12:36;11.80;63.80
15578;DHT22;17667;45.598;5.214;2023-04-25T22:15:26;11.80;66.00
15578;DHT22;17667;45.598;5.214;2023-04-25T22:18:14;11.70;68.10
